createdAt,value
2022-09-11T00:01:21.730Z,91.64
2022-09-11T00:03:49.823Z,91.78
2022-09-11T00:06:29.212Z,92.27
2022-09-11T00:09:01.386Z,92.05
2022-09-11T00:11:36.169Z,91.17
2022-09-11T00:14:03.769Z,91.88
2022-09-11T00:16:35.810Z,91.76
2022-09-11T00:19:07.745Z,91.58
2022-09-11T00:21:36.126Z,92.24
2022-09-11T00:24:04.982Z,92.23
2022-09-11T00:26:33.150Z,92.65
2022-09-11T00:29:02.449Z,92.39
2022-09-11T00:31:30.805Z,92.30
2022-09-11T00:33:59.610Z,92.52
2022-09-11T00:36:32.653Z,92.25
2022-09-11T00:39:00.565Z,92.41
2022-09-11T00:41:28.821Z,92.75
2022-09-11T00:43:58.262Z,92.84
2022-09-11T00:46:31.814Z,92.68
2022-09-11T00:49:02.168Z,92.38
2022-09-11T00:51:34.377Z,92.84
2022-09-11T00:54:04.015Z,92.74
2022-09-11T00:56:36.513Z,92.93
2022-09-11T00:59:05.029Z,92.68
2022-09-11T01:01:34.119Z,92.96
2022-09-11T01:04:04.700Z,93.15
2022-09-11T01:06:33.157Z,92.97
2022-09-11T01:09:00.881Z,93.26
2022-09-11T01:11:42.110Z,92.81
2022-09-11T01:14:15.870Z,93.49
2022-09-11T01:16:50.927Z,93.20
2022-09-11T01:19:37.787Z,93.23
2022-09-11T01:22:10.809Z,93.41
2022-09-11T01:24:48.339Z,93.29
2022-09-11T01:27:22.731Z,93.35
2022-09-11T01:29:59.759Z,93.28
2022-09-11T01:32:36.559Z,93.65
2022-09-11T01:35:13.305Z,94.08
2022-09-11T01:37:48.055Z,94.14
2022-09-11T01:40:24.623Z,94.00
2022-09-11T01:42:56.516Z,94.43
2022-09-11T01:45:25.817Z,94.34
2022-09-11T01:47:55.694Z,94.57
2022-09-11T01:50:25.717Z,93.93
2022-09-11T01:52:59.515Z,94.39
2022-09-11T01:55:35.277Z,94.50
2022-09-11T01:58:07.732Z,94.82
2022-09-11T02:00:37.635Z,94.93
2022-09-11T02:03:12.979Z,94.99
2022-09-11T02:05:47.420Z,94.95
2022-09-11T02:08:23.901Z,95.30
2022-09-11T02:10:54.732Z,95.68
2022-09-11T02:13:30.262Z,95.55
2022-09-11T02:16:05.936Z,95.43
2022-09-11T02:18:45.565Z,95.09
2022-09-11T02:21:14.430Z,94.95
2022-09-11T02:23:42.874Z,95.22
2022-09-11T02:26:13.568Z,95.47
2022-09-11T02:28:41.622Z,95.37
2022-09-11T02:31:10.301Z,95.41
2022-09-11T02:33:39.539Z,95.54
2022-09-11T02:36:21.990Z,95.64
2022-09-11T02:38:56.039Z,95.50
2022-09-11T02:41:31.041Z,95.53
2022-09-11T02:44:04.954Z,95.60
2022-09-11T02:46:35.979Z,95.54
2022-09-11T02:49:08.638Z,95.49
2022-09-11T02:51:46.619Z,95.69
2022-09-11T02:54:21.409Z,95.69
2022-09-11T02:56:58.316Z,95.80
2022-09-11T02:59:32.261Z,95.48
2022-09-11T03:02:03.367Z,95.78
2022-09-11T03:04:31.756Z,95.82
2022-09-11T03:07:01.100Z,95.33
2022-09-11T03:09:29.305Z,96.03
2022-09-11T03:11:56.712Z,95.81
2022-09-11T03:14:24.186Z,95.80
2022-09-11T03:16:52.534Z,96.18
2022-09-11T03:19:21.409Z,95.88
2022-09-11T03:21:49.850Z,95.78
2022-09-11T03:24:17.417Z,95.72
2022-09-11T03:26:44.977Z,95.50
2022-09-11T03:29:12.636Z,95.72
2022-09-11T03:31:40.867Z,95.74
2022-09-11T03:34:09.273Z,95.90
2022-09-11T03:36:37.645Z,95.97
2022-09-11T03:39:05.697Z,95.83
2022-09-11T03:41:33.174Z,95.74
2022-09-11T03:44:00.661Z,95.65
2022-09-11T03:46:28.324Z,95.51
2022-09-11T03:48:55.702Z,95.72
2022-09-11T03:51:23.212Z,96.18
2022-09-11T03:53:50.464Z,96.52
2022-09-11T03:56:17.941Z,96.71
2022-09-11T03:58:45.503Z,96.98
2022-09-11T04:01:15.685Z,96.91
2022-09-11T04:03:43.338Z,97.21
2022-09-11T04:06:11.050Z,97.42
2022-09-11T04:08:40.456Z,98.04
2022-09-11T04:11:08.166Z,97.51
2022-09-11T04:13:37.560Z,97.83
2022-09-11T04:16:09.021Z,97.89
2022-09-11T04:18:38.607Z,97.69
2022-09-11T04:21:07.253Z,97.60
2022-09-11T04:23:34.951Z,98.19
2022-09-11T04:26:02.422Z,98.08
2022-09-11T04:28:31.531Z,98.60
2022-09-11T04:31:02.773Z,98.40
2022-09-11T04:33:30.385Z,98.64
2022-09-11T04:35:57.501Z,98.89
2022-09-11T04:38:25.108Z,99.14
2022-09-11T04:40:53.782Z,99.92
2022-09-11T04:43:21.034Z,99.80
2022-09-11T04:45:48.242Z,98.90
2022-09-11T04:48:15.542Z,99.20
2022-09-11T04:50:42.896Z,99.10
2022-09-11T04:53:10.262Z,99.06
2022-09-11T04:55:37.622Z,99.12
2022-09-11T04:58:04.822Z,99.09
2022-09-11T05:00:32.810Z,98.90
2022-09-11T05:03:00.189Z,98.72
2022-09-11T05:05:27.491Z,98.56
2022-09-11T05:07:54.654Z,99.03
2022-09-11T05:10:21.930Z,98.64
2022-09-11T05:12:49.167Z,99.26
2022-09-11T05:15:16.654Z,99.47
2022-09-11T05:17:43.911Z,99.43
2022-09-11T05:20:12.114Z,99.46
2022-09-11T05:22:39.393Z,99.61
2022-09-11T05:25:07.358Z,99.35
2022-09-11T05:27:35.434Z,99.71
2022-09-11T05:30:02.910Z,99.84
2022-09-11T05:32:30.098Z,99.57
2022-09-11T05:34:57.302Z,99.77
2022-09-11T05:37:25.095Z,100.00
2022-09-11T05:39:52.548Z,99.88
2022-09-11T05:42:20.869Z,100.00
2022-09-11T05:44:48.665Z,100.00
2022-09-11T05:47:16.021Z,100.00
2022-09-11T05:49:43.529Z,100.00
2022-09-11T05:52:11.222Z,100.00
2022-09-11T05:54:38.416Z,100.00
2022-09-11T05:57:07.977Z,100.00
2022-09-11T05:59:35.483Z,100.00
2022-09-11T06:02:03.816Z,100.00
2022-09-11T06:04:31.191Z,100.00
2022-09-11T06:06:58.357Z,100.00
2022-09-11T06:09:25.694Z,99.97
2022-09-11T06:11:53.789Z,100.00
2022-09-11T06:14:22.033Z,100.00
2022-09-11T06:16:49.526Z,100.00
2022-09-11T06:19:17.318Z,100.00
2022-09-11T06:21:45.132Z,100.00
2022-09-11T06:24:12.407Z,100.00
2022-09-11T06:26:39.740Z,100.00
2022-09-11T06:29:08.030Z,100.00
2022-09-11T06:31:35.520Z,100.00
2022-09-11T06:34:02.899Z,100.00
2022-09-11T06:36:31.915Z,100.00
2022-09-11T06:38:59.579Z,100.00
2022-09-11T06:41:27.708Z,100.00
2022-09-11T06:43:55.070Z,100.00
2022-09-11T06:46:24.951Z,100.00
2022-09-11T06:48:52.918Z,100.00
2022-09-11T06:51:22.063Z,100.00
2022-09-11T06:53:53.840Z,100.00
2022-09-11T06:56:21.473Z,100.00
2022-09-11T06:58:48.986Z,100.00
2022-09-11T07:01:18.687Z,100.00
2022-09-11T07:03:47.877Z,100.00
2022-09-11T07:06:17.837Z,100.00
2022-09-11T07:08:52.722Z,100.00
2022-09-11T07:11:20.242Z,100.00
2022-09-11T07:13:47.903Z,100.00
2022-09-11T07:16:15.341Z,100.00
2022-09-11T07:18:44.989Z,100.00
2022-09-11T07:21:16.743Z,100.00
2022-09-11T07:23:48.529Z,99.97
2022-09-11T07:26:17.039Z,100.00
2022-09-11T07:28:44.662Z,99.96
2022-09-11T07:31:19.991Z,99.86
2022-09-11T07:33:49.455Z,99.84
2022-09-11T07:36:20.182Z,100.00
2022-09-11T07:38:49.140Z,99.67
2022-09-11T07:41:18.432Z,99.89
2022-09-11T07:43:46.001Z,99.78
2022-09-11T07:46:14.374Z,99.56
2022-09-11T07:48:43.823Z,99.59
2022-09-11T07:51:13.801Z,99.60
2022-09-11T07:53:44.807Z,99.32
2022-09-11T07:56:15.381Z,99.18
2022-09-11T07:58:43.891Z,99.03
2022-09-11T08:01:14.468Z,99.21
2022-09-11T08:03:43.483Z,98.93
2022-09-11T08:06:16.068Z,99.14
2022-09-11T08:08:47.413Z,98.97
2022-09-11T08:11:17.594Z,98.11
2022-09-11T08:13:51.368Z,98.71
2022-09-11T08:16:19.963Z,98.36
2022-09-11T08:18:48.551Z,98.22
2022-09-11T08:21:17.151Z,98.14
2022-09-11T08:23:45.772Z,98.23
2022-09-11T08:26:16.112Z,98.32
2022-09-11T08:28:45.293Z,98.12
2022-09-11T08:31:13.942Z,97.99
2022-09-11T08:33:41.612Z,97.85
2022-09-11T08:36:11.489Z,97.39
2022-09-11T08:38:38.852Z,97.72
2022-09-11T08:41:11.936Z,97.42
2022-09-11T08:43:51.173Z,97.27
2022-09-11T08:46:22.297Z,96.71
2022-09-11T08:48:55.862Z,96.39
2022-09-11T08:51:23.706Z,96.19
2022-09-11T08:53:51.942Z,95.62
2022-09-11T08:56:22.913Z,96.01
2022-09-11T08:58:56.450Z,96.02
2022-09-11T09:01:26.650Z,95.60
2022-09-11T09:04:00.387Z,95.03
2022-09-11T09:06:40.359Z,95.20
2022-09-11T09:09:15.702Z,94.78
2022-09-11T09:11:56.385Z,94.59
2022-09-11T09:14:30.105Z,94.55
2022-09-11T09:17:00.866Z,94.67
2022-09-11T09:19:37.163Z,94.62
2022-09-11T09:22:10.729Z,94.33
2022-09-11T09:24:46.319Z,94.90
2022-09-11T09:27:20.118Z,94.38
2022-09-11T09:29:53.241Z,94.49
2022-09-11T09:32:28.065Z,94.30
2022-09-11T09:35:01.927Z,93.75
2022-09-11T09:37:29.463Z,93.74
2022-09-11T09:39:57.172Z,93.38
2022-09-11T09:42:30.570Z,92.55
2022-09-11T09:45:04.349Z,91.44
2022-09-11T09:47:33.470Z,91.83
2022-09-11T09:50:01.102Z,91.80
2022-09-11T09:52:36.509Z,90.61
2022-09-11T09:55:07.588Z,89.80
2022-09-11T09:57:37.178Z,88.76
2022-09-11T10:00:07.249Z,88.34
2022-09-11T10:02:40.957Z,87.38
2022-09-11T10:05:15.551Z,86.65
2022-09-11T10:07:49.009Z,86.93
2022-09-11T10:10:22.091Z,86.75
2022-09-11T10:12:49.943Z,86.92
2022-09-11T10:15:22.909Z,86.97
2022-09-11T10:17:50.949Z,86.15
2022-09-11T10:20:19.028Z,85.44
2022-09-11T10:22:47.114Z,85.28
2022-09-11T10:25:16.349Z,86.54
2022-09-11T10:27:52.831Z,86.47
2022-09-11T10:30:26.605Z,85.51
2022-09-11T10:32:54.012Z,83.98
2022-09-11T10:35:24.341Z,82.40
2022-09-11T10:38:05.790Z,81.31
2022-09-11T10:40:33.129Z,80.41
2022-09-11T10:43:00.498Z,80.12
2022-09-11T10:45:28.017Z,80.14
2022-09-11T10:47:55.308Z,79.94
2022-09-11T10:50:24.773Z,80.03
2022-09-11T10:52:58.259Z,79.09
2022-09-11T10:55:31.574Z,78.75
2022-09-11T10:58:08.053Z,77.81
2022-09-11T11:00:36.370Z,78.71
2022-09-11T11:03:11.562Z,79.08
2022-09-11T11:05:42.521Z,78.53
2022-09-11T11:08:16.208Z,78.18
2022-09-11T11:10:51.482Z,78.23
2022-09-11T11:13:23.600Z,78.12
2022-09-11T11:15:58.019Z,77.81
2022-09-11T11:18:31.833Z,78.51
2022-09-11T11:21:00.828Z,78.20
2022-09-11T11:23:31.886Z,77.53
2022-09-11T11:26:02.858Z,77.63
2022-09-11T11:28:34.411Z,78.03
2022-09-11T11:31:12.417Z,77.89
2022-09-11T11:33:44.112Z,77.56
2022-09-11T11:36:23.218Z,77.52
2022-09-11T11:39:00.815Z,77.58
2022-09-11T11:41:44.740Z,77.36
2022-09-11T11:44:18.861Z,76.78
2022-09-11T11:46:52.560Z,76.69
2022-09-11T11:49:28.076Z,76.10
2022-09-11T11:52:00.534Z,76.41
2022-09-11T11:54:36.573Z,76.35
2022-09-11T11:59:56.360Z,74.28
2022-09-11T12:02:34.296Z,72.82
2022-09-11T12:05:07.999Z,72.35
2022-09-11T12:07:39.098Z,71.99
2022-09-11T12:12:45.744Z,71.22
2022-09-11T12:15:21.524Z,71.78
2022-09-11T12:18:00.557Z,72.53
2022-09-11T12:22:59.850Z,73.08
2022-09-11T12:25:31.189Z,73.36
2022-09-11T12:28:27.909Z,71.53
2022-09-11T12:30:59.386Z,71.39
2022-09-11T12:33:43.855Z,71.64
2022-09-11T12:36:13.161Z,71.84
2022-09-11T12:41:30.657Z,71.20
2022-09-11T12:43:58.171Z,71.80
2022-09-11T12:46:28.176Z,71.99
2022-09-11T12:49:21.091Z,73.28
2022-09-11T12:51:54.840Z,72.23
2022-09-11T12:54:23.620Z,71.58
2022-09-11T13:02:00.302Z,71.52
2022-09-11T13:04:31.721Z,71.17
2022-09-11T13:07:05.115Z,72.14
2022-09-11T13:12:24.960Z,71.40
2022-09-11T13:14:59.601Z,70.25
2022-09-11T13:17:37.839Z,70.60
2022-09-11T13:20:08.058Z,69.92
2022-09-11T13:22:35.582Z,70.35
2022-09-11T13:25:12.265Z,71.60
2022-09-11T13:27:43.730Z,70.36
2022-09-11T13:30:15.096Z,69.49
2022-09-11T13:32:44.495Z,69.92
2022-09-11T13:35:17.324Z,69.90
2022-09-11T13:37:53.755Z,69.78
2022-09-11T13:40:28.369Z,70.21
2022-09-11T13:42:56.545Z,69.87
2022-09-11T13:45:24.575Z,69.33
2022-09-11T13:47:51.513Z,68.21
2022-09-11T13:50:21.054Z,67.91
2022-09-11T13:52:49.446Z,68.04
2022-09-11T13:55:19.857Z,68.31
2022-09-11T13:57:57.870Z,68.74
2022-09-11T14:03:13.295Z,69.41
2022-09-11T14:05:50.474Z,68.75
2022-09-11T14:08:25.034Z,68.63
2022-09-11T14:10:56.592Z,68.60
2022-09-11T14:13:34.062Z,69.04
2022-09-11T14:16:05.763Z,69.35
2022-09-11T14:18:46.915Z,69.58
2022-09-11T14:21:18.895Z,70.03
2022-09-11T14:23:51.596Z,69.92
2022-09-11T14:26:22.295Z,69.49
2022-09-11T14:29:06.615Z,69.82
2022-09-11T14:31:37.430Z,69.50
2022-09-11T14:34:16.174Z,69.75
2022-09-11T14:36:48.096Z,69.57
2022-09-11T14:39:21.939Z,69.81
2022-09-11T14:41:49.098Z,70.04
2022-09-11T14:44:17.947Z,69.94
2022-09-11T14:46:45.070Z,70.09
2022-09-11T14:49:13.149Z,70.40
2022-09-11T14:54:14.369Z,70.08
2022-09-11T14:56:41.790Z,69.61
2022-09-11T14:59:08.925Z,69.21
2022-09-11T15:01:36.835Z,69.44
2022-09-11T15:04:04.304Z,69.06
2022-09-11T15:06:31.721Z,68.27
2022-09-11T15:09:01.947Z,67.34
2022-09-11T15:14:15.918Z,67.80
2022-09-11T15:16:44.810Z,68.48
2022-09-11T15:24:06.146Z,67.23
2022-09-11T15:26:34.647Z,67.07
2022-09-11T15:29:01.996Z,67.09
2022-09-11T15:31:32.417Z,66.73
2022-09-11T15:33:59.716Z,66.97
2022-09-11T15:36:27.640Z,66.90
2022-09-11T15:38:55.175Z,67.10
2022-09-11T15:41:22.995Z,66.65
2022-09-11T15:43:51.027Z,67.17
2022-09-11T15:49:02.289Z,67.46
2022-09-11T15:51:30.376Z,67.63
2022-09-11T15:54:21.533Z,66.94
2022-09-11T15:56:48.615Z,67.01
2022-09-11T15:59:15.913Z,67.62
2022-09-11T16:01:44.748Z,68.47
2022-09-11T16:04:14.755Z,68.72
2022-09-11T16:06:44.072Z,68.39
2022-09-11T16:09:16.537Z,68.48
2022-09-11T16:11:46.025Z,68.23
2022-09-11T16:14:17.455Z,67.27
2022-09-11T16:16:47.443Z,67.01
2022-09-11T16:19:15.946Z,66.54
2022-09-11T16:21:43.806Z,66.66
2022-09-11T16:24:11.958Z,66.68
2022-09-11T16:26:39.436Z,66.23
2022-09-11T16:31:35.309Z,67.12
2022-09-11T16:34:04.691Z,67.61
2022-09-11T16:36:39.015Z,67.17
2022-09-11T16:39:09.465Z,67.46
2022-09-11T16:41:37.535Z,66.82
2022-09-11T16:44:06.803Z,67.37
2022-09-11T16:46:34.765Z,66.75
2022-09-11T16:49:02.371Z,66.80
2022-09-11T16:51:30.129Z,66.96
2022-09-11T16:56:26.288Z,66.52
2022-09-11T16:58:55.383Z,66.80
2022-09-11T17:01:26.517Z,66.85
2022-09-11T17:03:56.303Z,67.34
2022-09-11T17:06:30.481Z,66.59
2022-09-11T17:09:00.708Z,66.38
2022-09-11T17:11:30.897Z,66.78
2022-09-11T17:14:00.304Z,66.61
2022-09-11T17:16:32.609Z,67.66
2022-09-11T17:19:02.160Z,67.75
2022-09-11T17:21:36.087Z,68.19
2022-09-11T17:24:03.906Z,67.99
2022-09-11T17:26:32.084Z,67.96
2022-09-11T17:29:03.417Z,68.23
2022-09-11T17:31:31.449Z,69.43
2022-09-11T17:33:58.596Z,69.49
2022-09-11T17:36:25.644Z,69.46
2022-09-11T17:38:53.188Z,69.64
2022-09-11T17:41:21.445Z,69.67
2022-09-11T17:43:49.336Z,69.88
2022-09-11T17:46:20.185Z,70.08
2022-09-11T17:48:48.525Z,70.70
2022-09-11T17:51:20.375Z,71.57
2022-09-11T17:53:53.644Z,71.13
2022-09-11T17:56:25.216Z,71.34
2022-09-11T17:58:56.498Z,71.58
2022-09-11T18:01:25.511Z,72.41
2022-09-11T18:03:57.177Z,71.90
2022-09-11T18:06:29.826Z,71.35
2022-09-11T18:09:02.425Z,71.85
2022-09-11T18:11:31.138Z,72.17
2022-09-11T18:16:26.525Z,72.71
2022-09-11T18:18:54.760Z,72.50
2022-09-11T18:21:22.206Z,72.86
2022-09-11T18:23:50.188Z,72.95
2022-09-11T18:26:23.974Z,73.66
2022-09-11T18:28:55.925Z,73.16
2022-09-11T18:31:24.543Z,73.13
2022-09-11T18:33:55.728Z,73.18
2022-09-11T18:36:24.205Z,72.50
2022-09-11T18:38:53.495Z,73.63
2022-09-11T18:42:21.196Z,73.46
2022-09-11T18:47:14.539Z,73.29
2022-09-11T18:49:42.284Z,73.82
2022-09-11T18:52:09.817Z,74.71
2022-09-11T18:54:37.655Z,74.87
2022-09-11T18:57:05.354Z,74.62
2022-09-11T18:59:32.504Z,74.26
2022-09-11T19:02:00.356Z,74.06
2022-09-11T19:04:28.556Z,74.76
2022-09-11T19:06:55.933Z,75.27
2022-09-11T19:09:23.255Z,74.99
2022-09-11T19:11:55.517Z,74.27
2022-09-11T19:14:23.283Z,74.31
2022-09-11T19:16:50.605Z,74.77
2022-09-11T19:19:18.408Z,75.02
2022-09-11T19:21:46.025Z,75.36
2022-09-11T19:24:13.207Z,74.61
2022-09-11T19:26:43.986Z,74.99
2022-09-11T19:29:13.636Z,75.37
2022-09-11T19:31:41.637Z,75.62
2022-09-11T19:34:12.251Z,75.58
2022-09-11T19:36:39.887Z,76.14
2022-09-11T19:39:07.870Z,76.53
2022-09-11T19:41:37.976Z,76.23
2022-09-11T19:44:08.270Z,76.14
2022-09-11T19:46:36.905Z,76.24
2022-09-11T19:49:07.128Z,76.55
2022-09-11T19:51:37.676Z,78.08
2022-09-11T19:54:06.497Z,77.47
2022-09-11T19:56:36.588Z,77.21
2022-09-11T19:59:06.411Z,77.45
2022-09-11T20:01:34.692Z,77.31
2022-09-11T20:06:31.913Z,79.02
2022-09-11T20:09:31.499Z,78.79
2022-09-11T20:12:01.114Z,78.43
2022-09-11T20:14:30.330Z,78.96
2022-09-11T20:16:57.845Z,79.25
2022-09-11T20:19:25.615Z,78.84
2022-09-11T20:21:53.232Z,78.69
2022-09-11T20:24:30.175Z,78.82
2022-09-11T20:27:38.704Z,79.26
2022-09-11T20:30:07.946Z,78.40
2022-09-11T20:32:38.854Z,78.53
2022-09-11T20:35:07.676Z,78.47
2022-09-11T20:37:35.996Z,78.88
2022-09-11T20:43:41.773Z,78.48
2022-09-11T20:46:10.065Z,78.95
2022-09-11T20:48:37.386Z,79.83
2022-09-11T20:51:08.046Z,79.67
2022-09-11T20:56:04.614Z,79.55
2022-09-11T20:58:33.288Z,79.68
2022-09-11T21:01:01.000Z,80.03
2022-09-11T21:03:29.307Z,80.52
2022-09-11T21:05:57.014Z,79.89
2022-09-11T21:08:25.998Z,80.02
2022-09-11T21:15:48.857Z,81.49
2022-09-11T21:18:15.945Z,80.29
2022-09-11T21:20:43.462Z,80.42
2022-09-11T21:23:10.634Z,80.43
2022-09-11T21:25:40.771Z,80.29
2022-09-11T21:28:08.089Z,81.00
2022-09-11T21:30:39.023Z,81.84
2022-09-11T21:33:06.534Z,80.87
2022-09-11T21:35:33.529Z,80.84
2022-09-11T21:38:01.184Z,80.82
2022-09-11T21:40:28.261Z,81.03
2022-09-11T21:42:55.881Z,81.44
2022-09-11T21:47:51.891Z,81.82
2022-09-11T21:50:19.023Z,82.31
2022-09-11T21:52:46.212Z,82.59
2022-09-11T21:55:13.825Z,83.14
2022-09-11T21:57:41.121Z,83.41
2022-09-11T22:02:39.008Z,83.04
2022-09-11T22:05:07.708Z,83.08
2022-09-11T22:07:34.756Z,83.00
2022-09-11T22:10:02.586Z,83.99
2022-09-11T22:12:29.811Z,83.76
2022-09-11T22:22:18.136Z,84.10
2022-09-11T22:24:45.373Z,84.37
2022-09-11T22:27:15.734Z,84.32
2022-09-11T22:29:46.966Z,85.02
2022-09-11T22:39:35.413Z,85.42
2022-09-11T22:42:04.926Z,84.89
2022-09-11T22:44:32.056Z,85.10
2022-09-11T22:46:59.582Z,85.65
2022-09-11T22:49:27.542Z,85.64
2022-09-11T22:51:54.712Z,85.84
2022-09-11T22:54:22.114Z,85.82
2022-09-11T22:56:49.328Z,86.24
2022-09-11T22:59:16.446Z,86.39
2022-09-11T23:01:43.735Z,86.61
2022-09-11T23:06:47.998Z,86.00
2022-09-11T23:09:18.960Z,86.38
2022-09-11T23:11:46.972Z,86.33
2022-09-11T23:14:15.504Z,86.72
2022-09-11T23:16:43.205Z,86.57
2022-09-11T23:19:13.017Z,86.58
2022-09-11T23:21:40.231Z,87.01
2022-09-11T23:24:08.207Z,86.73
2022-09-11T23:26:35.396Z,86.90
2022-09-11T23:29:02.427Z,87.02
2022-09-11T23:31:31.903Z,87.06
2022-09-11T23:34:02.434Z,86.85
2022-09-11T23:36:31.395Z,87.34
2022-09-11T23:38:59.235Z,87.14
2022-09-11T23:41:27.098Z,87.64
2022-09-11T23:43:55.384Z,87.04
2022-09-11T23:46:22.440Z,86.78
2022-09-11T23:48:50.014Z,87.08
2022-09-11T23:51:17.643Z,87.16
2022-09-11T23:53:45.413Z,87.83
2022-09-11T23:56:15.765Z,87.25
2022-09-11T23:58:45.898Z,87.48
